Patriot — WDG9802 — position and weather

sailwx.info

Track history (hours):
 
Tides and Currents Weather Stations Pressure Air Temp Water Temp Dewpoint Dewpoint Depression Visibility Wind Speed Wind Dir Waves Ship Positions

Patriot

Owner: Marine Towing of Tampa LLC, Tampa, FL. More information available from US FCC via Universal Licensing System and Coast Guard Vessel Documentation Center.

Last reported at 2018-Feb-23 18:31 UTC. Time now 2018-Feb-23 18:44 UTC.
Position N 27°56' W 082°26'.

Length 28 m; draft 17 m.

Type: Tug. MMSI: 367591250.

Date/timePositionNaut miles runAvg speedWind from/ knotsBaromVisibWave heightAir tempDewpointWater temp
2018-Feb-23 18:31N 27°56' W 082°26'0 0.0
2018-Feb-23 18:00N 27°56' W 082°26'0 0.0
2018-Feb-23 17:31N 27°56' W 082°26'0 0.0
2018-Feb-23 17:01N 27°56' W 082°26'0 0.0
2018-Feb-23 16:31N 27°56' W 082°26'0 0.0
2018-Feb-23 16:01N 27°56' W 082°26'0 0.0
2018-Feb-23 15:31N 27°56' W 082°26'0 0.0
2018-Feb-23 15:01N 27°56' W 082°26'0 0.0
2018-Feb-23 14:31N 27°56' W 082°26'0 0.0
2018-Feb-23 14:01N 27°56' W 082°26'0 0.0
2018-Feb-23 13:30N 27°56' W 082°26'0 0.0
2018-Feb-23 13:00N 27°56' W 082°26'0 0.0
2018-Feb-23 12:31N 27°56' W 082°26'0 0.0
2018-Feb-23 12:01N 27°56' W 082°26'0 0.0
2018-Feb-23 11:31N 27°56' W 082°26'1 1.8
2018-Feb-23 11:01N 27°55' W 082°26'1 1.8
2018-Feb-23 10:31N 27°55' W 082°27'0 0.1
2018-Feb-23 10:00N 27°55' W 082°27'0 0.5
2018-Feb-23 09:31N 27°55' W 082°27'4 7.8
2018-Feb-23 09:00N 27°51' W 082°27'3 6.4
2018-Feb-23 08:31N 27°48' W 082°25'0 0.0
2018-Feb-23 08:00N 27°48' W 082°25'0 0.0
2018-Feb-23 07:30N 27°48' W 082°25'0 0.0
2018-Feb-23 07:01N 27°48' W 082°25'0 0.0
2018-Feb-23 06:30N 27°48' W 082°25'0 0.0
2018-Feb-23 06:00N 27°48' W 082°25'0 0.0
2018-Feb-23 05:31N 27°48' W 082°25'0 0.0
2018-Feb-23 05:00N 27°48' W 082°25'5 8.9
2018-Feb-23 04:30N 27°48' W 082°30'510.0
2018-Feb-23 04:00N 27°43' W 082°32'2 0.1
2018-Feb-21 16:08N 27°42' W 082°33'110.9
2018-Feb-21 16:01N 27°43' W 082°33'510.0
2018-Feb-21 15:31N 27°47' W 082°30'5 9.3
2018-Feb-21 15:00N 27°51' W 082°27'5 9.2
2018-Feb-21 14:31N 27°55' W 082°26'1 1.3
2018-Feb-21 14:01N 27°56' W 082°26'0 0.0
2018-Feb-21 13:30N 27°56' W 082°26'0 0.0
2018-Feb-21 13:01N 27°56' W 082°26'0 0.0
2018-Feb-21 12:31N 27°56' W 082°26'0 0.0
2018-Feb-21 12:01N 27°56' W 082°26'1 2.3
2018-Feb-21 11:30N 27°55' W 082°27'2 3.4
2018-Feb-21 11:01N 27°57' W 082°27'0 0.0
2018-Feb-21 10:31N 27°57' W 082°27'0 0.1
2018-Feb-21 10:01N 27°57' W 082°27'1 2.3
2018-Feb-21 09:31N 27°56' W 082°27'1 2.3
2018-Feb-21 08:59N 27°54' W 082°26'0 0.2
2018-Feb-21 08:31N 27°55' W 082°26'1 2.6
2018-Feb-21 08:01N 27°56' W 082°26'0 0.7
2018-Feb-21 07:31N 27°56' W 082°26'0 0.0
2018-Feb-21 07:01N 27°56' W 082°26'0 0.0
2018-Feb-21 06:30N 27°56' W 082°26'0 0.0
2018-Feb-21 06:01N 27°56' W 082°26'0 0.0
2018-Feb-21 05:31N 27°56' W 082°26'0 0.0
2018-Feb-21 05:01N 27°56' W 082°26'0 0.0
2018-Feb-21 04:31N 27°56' W 082°26'0 0.0
2018-Feb-21 04:01N 27°56' W 082°26'0 0.0
2018-Feb-21 03:31N 27°56' W 082°26'0 0.0
2018-Feb-21 03:01N 27°56' W 082°26'1 2.9
2018-Feb-21 02:30N 27°55' W 082°26'1 1.1
2018-Feb-21 02:01N 27°54' W 082°25'3 6.0
2018-Feb-21 01:30N 27°57' W 082°27'0 0.3
2018-Feb-21 01:01N 27°57' W 082°27'0 0.1
2018-Feb-21 00:31N 27°57' W 082°27'1 1.1
2018-Feb-21 00:00N 27°57' W 082°27'1 1.3
2018-Feb-20 23:30N 27°56' W 082°27'0 0.5
2018-Feb-20 23:01N 27°56' W 082°27'1 2.8
2018-Feb-20 22:31N 27°55' W 082°26'1 2.6
2018-Feb-20 22:00N 27°56' W 082°26'0 0.0
2018-Feb-20 21:31N 27°56' W 082°26'0 0.0
2018-Feb-20 21:01N 27°56' W 082°26'0 0.0
2018-Feb-20 20:31N 27°56' W 082°26'0 0.0
2018-Feb-20 20:01N 27°56' W 082°26'0 0.0
2018-Feb-20 19:31N 27°56' W 082°26'2 3.2
2018-Feb-20 19:01N 27°54' W 082°26'510.7
2018-Feb-20 18:31N 27°49' W 082°27'2 4.2
2018-Feb-20 18:00N 27°48' W 082°25'2 4.0
2018-Feb-20 17:30N 27°49' W 082°27'1 2.2
2018-Feb-20 17:01N 27°48' W 082°28'4 7.4
2018-Feb-20 16:30N 27°52' W 082°27'4 8.7
2018-Feb-20 16:01N 27°56' W 082°26'0 0.2
2018-Feb-20 15:31N 27°56' W 082°26'0 0.0
2018-Feb-20 15:01N 27°56' W 082°26'2 3.8
2018-Feb-20 14:31N 27°54' W 082°25'0 0.4
2018-Feb-20 14:01N 27°54' W 082°26'0 0.6
2018-Feb-20 13:31N 27°54' W 082°26'1 1.4
2018-Feb-20 13:01N 27°55' W 082°25'0 0.9
2018-Feb-20 12:31N 27°55' W 082°26'1 1.5
2018-Feb-20 12:01N 27°56' W 082°26'0 0.0
2018-Feb-20 11:30N 27°56' W 082°26'0 0.0
2018-Feb-20 11:01N 27°56' W 082°26'0 0.0
2018-Feb-20 10:31N 27°56' W 082°26'0 0.0
2018-Feb-20 10:01N 27°56' W 082°26'0 0.0
2018-Feb-20 09:30N 27°56' W 082°26'0 0.0
2018-Feb-20 09:01N 27°56' W 082°26'0 0.0
2018-Feb-20 08:31N 27°56' W 082°26'3 6.2
2018-Feb-20 08:01N 27°53' W 082°26'610.4
2018-Feb-20 07:28N 27°48' W 082°29'510.3
2018-Feb-20 07:01N 27°44' W 082°32'3 1.5
2018-Feb-20 04:40N 27°41' W 082°34'210.9
2018-Feb-20 04:30N 27°42' W 082°33'510.8
2018-Feb-20 04:00N 27°47' W 082°31'510.1
2018-Feb-20 03:31N 27°51' W 082°27'5 9.9
2018-Feb-20 03:01N 27°56' W 082°26'0 0.8
2018-Feb-20 02:30N 27°56' W 082°26'0 0.0
2018-Feb-20 02:00N 27°56' W 082°26'0 0.0
2018-Feb-20 01:31N 27°56' W 082°26'0 0.0
2018-Feb-20 01:00N 27°56' W 082°26'0 0.0
2018-Feb-20 00:31N 27°56' W 082°26'0 0.0
2018-Feb-20 00:01N 27°56' W 082°26'0 0.0
2018-Feb-19 23:31N 27°56' W 082°26'0 0.0
2018-Feb-19 23:01N 27°56' W 082°26'0 0.0
2018-Feb-19 22:31N 27°56' W 082°26'0 0.0
2018-Feb-19 22:01N 27°56' W 082°26'0 0.0
2018-Feb-19 21:31N 27°56' W 082°26'0 0.0
2018-Feb-19 21:00N 27°56' W 082°26'0 0.0
2018-Feb-19 20:31N 27°56' W 082°26'0 0.0
2018-Feb-19 20:01N 27°56' W 082°26'1 2.8
2018-Feb-19 19:31N 27°55' W 082°27'1 2.8
2018-Feb-19 19:01N 27°56' W 082°27'1 1.4
2018-Feb-19 18:30N 27°55' W 082°27'0 0.7
2018-Feb-19 18:01N 27°55' W 082°27'1 1.1
2018-Feb-19 17:31N 27°55' W 082°26'1 3.0
2018-Feb-19 17:01N 27°56' W 082°26'0 0.0
2018-Feb-19 16:31N 27°56' W 082°26'0 0.0
2018-Feb-19 16:01N 27°56' W 082°26'0 0.0
2018-Feb-19 15:31N 27°56' W 082°26'0 0.0
2018-Feb-19 15:00N 27°56' W 082°26'0 0.0
2018-Feb-19 14:31N 27°56' W 082°26'0 0.0
2018-Feb-19 14:01N 27°56' W 082°26'0 0.0
2018-Feb-19 13:31N 27°56' W 082°26'1 2.4
2018-Feb-19 13:00N 27°55' W 082°25'0 0.0
2018-Feb-19 12:31N 27°55' W 082°25'1 2.7
2018-Feb-19 12:01N 27°54' W 082°26'1 2.0
2018-Feb-19 11:31N 27°53' W 082°26'2 4.5
2018-Feb-19 11:01N 27°55' W 082°26'1 2.1
2018-Feb-19 10:31N 27°56' W 082°26'0 0.0
2018-Feb-19 10:00N 27°56' W 082°26'0 0.0
2018-Feb-19 09:30N 27°56' W 082°26'0 0.0
2018-Feb-19 09:00N 27°56' W 082°26'0 0.0
2018-Feb-19 08:31N 27°56' W 082°26'0 0.0
2018-Feb-19 08:00N 27°56' W 082°26'0 0.0
2018-Feb-19 07:31N 27°56' W 082°26'0 0.0
2018-Feb-19 07:01N 27°56' W 082°26'0 0.0
2018-Feb-19 06:31N 27°56' W 082°26'0 0.0
2018-Feb-19 06:01N 27°56' W 082°26'0 0.0
2018-Feb-19 05:30N 27°56' W 082°26'0 0.0
2018-Feb-19 05:01N 27°56' W 082°26'0 0.6
2018-Feb-19 04:30N 27°56' W 082°26'1 1.9
2018-Feb-19 04:00N 27°56' W 082°27'1 1.4
2018-Feb-19 03:31N 27°57' W 082°27'1 1.2
2018-Feb-19 03:01N 27°56' W 082°27'2 4.1
2018-Feb-19 02:31N 27°54' W 082°26'0 1.0
2018-Feb-19 02:00N 27°54' W 082°26'1 1.5
2018-Feb-19 01:31N 27°54' W 082°26'0 0.0
2018-Feb-19 01:01N 27°54' W 082°26'1 1.0
2018-Feb-19 00:31N 27°54' W 082°26'1 1.9
2018-Feb-19 00:01N 27°55' W 082°27'0 0.1
2018-Feb-18 23:31N 27°55' W 082°27'2 3.7
2018-Feb-18 23:01N 27°53' W 082°26'0 0.6
2018-Feb-18 22:31N 27°53' W 082°26'3 5.7
2018-Feb-18 22:00N 27°56' W 082°26'0 0.7
2018-Feb-18 21:30N 27°56' W 082°26'0 0.0
2018-Feb-18 21:01N 27°56' W 082°26'0 0.0
2018-Feb-18 20:31N 27°56' W 082°26'0 0.0
2018-Feb-18 20:00N 27°56' W 082°26'0 0.0
2018-Feb-18 19:31N 27°56' W 082°26'0 0.0
2018-Feb-18 19:01N 27°56' W 082°26'0 0.0
2018-Feb-18 18:31N 27°56' W 082°26'0 0.0
2018-Feb-18 18:01N 27°56' W 082°26'0 0.0
2018-Feb-18 17:31N 27°56' W 082°26'0 0.0
2018-Feb-18 17:01N 27°56' W 082°26'0 0.0
2018-Feb-18 16:31N 27°56' W 082°26'0 0.0
2018-Feb-18 16:01N 27°56' W 082°26'0 0.0
2018-Feb-18 15:31N 27°56' W 082°26'0 0.0
2018-Feb-18 15:01N 27°56' W 082°26'0 0.0
2018-Feb-18 14:30N 27°56' W 082°26'0 0.0
2018-Feb-18 14:01N 27°56' W 082°26'0 0.3
2018-Feb-18 13:30N 27°56' W 082°26'1 1.5
2018-Feb-18 13:01N 27°56' W 082°27'0 0.9
2018-Feb-18 12:30N 27°56' W 082°27'1 1.4
2018-Feb-18 12:01N 27°56' W 082°27'2 4.8
2018-Feb-18 11:30N 27°53' W 082°26'1 2.3
2018-Feb-18 11:01N 27°54' W 082°26'0 0.7
2018-Feb-18 10:31N 27°54' W 082°26'0 0.0
2018-Feb-18 10:01N 27°54' W 082°26'0 0.0
2018-Feb-18 09:31N 27°54' W 082°26'0 0.0
2018-Feb-18 09:00N 27°54' W 082°26'0 0.0
2018-Feb-18 08:31N 27°54' W 082°26'0 0.5
2018-Feb-18 08:01N 27°55' W 082°26'1 1.0
2018-Feb-18 07:31N 27°54' W 082°26'1 2.5
2018-Feb-18 07:01N 27°53' W 082°26'3 5.5
2018-Feb-18 06:30N 27°56' W 082°26'1 1.0
2018-Feb-18 06:00N 27°56' W 082°26'0 0.0
2018-Feb-18 05:31N 27°56' W 082°26'0 0.0
2018-Feb-18 05:01N 27°56' W 082°26'0 0.0
2018-Feb-18 04:31N 27°56' W 082°26'0 0.0
2018-Feb-18 04:00N 27°56' W 082°26'0 0.0
2018-Feb-18 03:31N 27°56' W 082°26'0 0.0
2018-Feb-18 03:01N 27°56' W 082°26'0 0.0
2018-Feb-18 02:31N 27°56' W 082°26'0 0.0
2018-Feb-18 02:01N 27°56' W 082°26'0 0.0
2018-Feb-18 01:31N 27°56' W 082°26'0 0.0
2018-Feb-18 01:00N 27°56' W 082°26'0 0.0
2018-Feb-18 00:30N 27°56' W 082°26'0 0.0
2018-Feb-18 00:01N 27°56' W 082°26'0 0.0
2018-Feb-17 23:31N 27°56' W 082°26'0 0.0
2018-Feb-17 23:01N 27°56' W 082°26'0 0.0
2018-Feb-17 22:31N 27°56' W 082°26'0 0.0
2018-Feb-17 22:01N 27°56' W 082°26'0 0.0
2018-Feb-17 21:30N 27°56' W 082°26'0 0.0
2018-Feb-17 21:01N 27°56' W 082°26'0 0.0
2018-Feb-17 20:31N 27°56' W 082°26'0 0.0
2018-Feb-17 20:01N 27°56' W 082°26'0 0.0
2018-Feb-17 19:31N 27°56' W 082°26'0 0.0
2018-Feb-17 19:01N 27°56' W 082°26'2 3.6
2018-Feb-17 18:31N 27°54' W 082°26'611.0
2018-Feb-17 18:00N 27°49' W 082°27'2 3.6
2018-Feb-17 17:30N 27°48' W 082°25'0 0.4
2018-Feb-17 17:01N 27°48' W 082°25'1 2.3
2018-Feb-17 16:30N 27°49' W 082°26'4 8.7
2018-Feb-17 16:01N 27°53' W 082°26'3 6.3
2018-Feb-17 15:31N 27°56' W 082°26'0 0.0
2018-Feb-17 15:01N 27°56' W 082°26'0 0.0
2018-Feb-17 14:31N 27°56' W 082°26'0 0.0
2018-Feb-17 14:01N 27°56' W 082°26'0 0.0
2018-Feb-17 13:31N 27°56' W 082°26'0 0.0
2018-Feb-17 13:01N 27°56' W 082°26'0 0.0
2018-Feb-17 12:31N 27°56' W 082°26'0 0.0
2018-Feb-17 12:01N 27°56' W 082°26'0 0.0
2018-Feb-17 11:30N 27°56' W 082°26'0 0.0
2018-Feb-17 11:01N 27°56' W 082°26'0 0.0
2018-Feb-17 10:31N 27°56' W 082°26'0 0.0
2018-Feb-17 10:00N 27°56' W 082°26'0 0.0
2018-Feb-17 09:31N 27°56' W 082°26'0 0.0
2018-Feb-17 09:01N 27°56' W 082°26'0 0.0
2018-Feb-17 08:30N 27°56' W 082°26'0 0.0
2018-Feb-17 08:01N 27°56' W 082°26'0 0.0
2018-Feb-17 07:31N 27°56' W 082°26'0 0.0
2018-Feb-17 07:01N 27°56' W 082°26'0 0.0
2018-Feb-17 06:30N 27°56' W 082°26'0 0.0
2018-Feb-17 06:01N 27°56' W 082°26'0 0.0
2018-Feb-17 05:31N 27°56' W 082°26'0 0.0
2018-Feb-17 05:01N 27°56' W 082°26'0 0.0
2018-Feb-17 04:30N 27°56' W 082°26'0 0.0
2018-Feb-17 04:01N 27°56' W 082°26'0 0.0
2018-Feb-17 03:31N 27°56' W 082°26'0 0.0
2018-Feb-17 03:01N 27°56' W 082°26'0 0.0
2018-Feb-17 02:31N 27°56' W 082°26'0 0.0
2018-Feb-17 02:01N 27°56' W 082°26'0 0.0
2018-Feb-17 01:31N 27°56' W 082°26'0 0.0
2018-Feb-17 01:01N 27°56' W 082°26'0 0.0
2018-Feb-17 00:30N 27°56' W 082°26'0 0.0
2018-Feb-17 00:01N 27°56' W 082°26'0 0.0
2018-Feb-16 23:31N 27°56' W 082°26'0 0.0
2018-Feb-16 23:01N 27°56' W 082°26'0 0.0
2018-Feb-16 22:31N 27°56' W 082°26'1 1.5
2018-Feb-16 22:01N 27°56' W 082°27'1 2.2
2018-Feb-16 21:31N 27°57' W 082°27'0 0.4
2018-Feb-16 21:01N 27°57' W 082°27'2 3.7
2018-Feb-16 20:30N 27°55' W 082°26'1 1.1
2018-Feb-16 20:01N 27°54' W 082°26'1 1.8
2018-Feb-16 19:30N 27°55' W 082°26'1 2.3
2018-Feb-16 19:01N 27°56' W 082°26'0 0.0
2018-Feb-16 18:31N 27°56' W 082°26'0 0.0
2018-Feb-16 18:01N 27°56' W 082°26'0 0.0
2018-Feb-16 17:31N 27°56' W 082°26'0 0.0
2018-Feb-16 17:01N 27°56' W 082°26'0 0.0
2018-Feb-16 16:31N 27°56' W 082°26'0 0.0
2018-Feb-16 16:01N 27°56' W 082°26'0 0.0
2018-Feb-16 15:31N 27°56' W 082°26'0 0.0
2018-Feb-16 15:01N 27°56' W 082°26'0 0.0
2018-Feb-16 14:31N 27°56' W 082°26'0 0.0
2018-Feb-16 14:00N 27°56' W 082°26'1 1.9
2018-Feb-16 13:30N 27°55' W 082°25'0 0.0
2018-Feb-16 13:01N 27°55' W 082°25'1 2.6
2018-Feb-16 12:30N 27°54' W 082°26'1 2.8
2018-Feb-16 12:01N 27°53' W 082°26'3 6.1
2018-Feb-16 11:30N 27°50' W 082°27'510.4
2018-Feb-16 11:00N 27°46' W 082°31'9 2.5
2018-Feb-16 07:34N 27°38' W 082°34'3 4.5
2018-Feb-16 06:52N 27°38' W 082°38'2 5.6
2018-Feb-16 06:30N 27°39' W 082°36'2 1.6
2018-Feb-16 05:19N 27°38' W 082°34'3 7.2
2018-Feb-16 04:55N 27°41' W 082°35'410.2
2018-Feb-16 04:30N 27°44' W 082°32'5 9.7
2018-Feb-16 04:00N 27°48' W 082°28'510.2
2018-Feb-16 03:30N 27°53' W 082°26'2 4.7
2018-Feb-16 03:01N 27°55' W 082°25'1 1.6
2018-Feb-16 02:31N 27°54' W 082°26'0 0.8
2018-Feb-16 02:01N 27°54' W 082°26'0 0.0
2018-Feb-16 01:31N 27°54' W 082°26'0 0.0
2018-Feb-16 01:01N 27°54' W 082°26'0 0.0
2018-Feb-16 00:30N 27°54' W 082°26'1 1.3
2018-Feb-16 00:01N 27°55' W 082°27'0 0.1
2018-Feb-15 23:31N 27°55' W 082°27'0 0.0
2018-Feb-15 23:00N 27°55' W 082°27'0 0.4
2018-Feb-15 22:31N 27°55' W 082°27'2 3.2
2018-Feb-15 22:01N 27°57' W 082°27'0 0.7
2018-Feb-15 21:31N 27°57' W 082°27'2 4.8
2018-Feb-15 21:01N 27°55' W 082°27'1 2.7
2018-Feb-15 20:31N 27°56' W 082°26'0 0.0
2018-Feb-15 20:01N 27°56' W 082°26'0 0.0
2018-Feb-15 19:31N 27°56' W 082°26'0 0.0
2018-Feb-15 19:01N 27°56' W 082°26'0 0.0
2018-Feb-15 18:31N 27°56' W 082°26'0 0.0
2018-Feb-15 18:01N 27°56' W 082°26'0 0.0
2018-Feb-15 17:31N 27°56' W 082°26'0 0.0
2018-Feb-15 17:00N 27°56' W 082°26'0 0.0
2018-Feb-15 16:31N 27°56' W 082°26'0 0.0
2018-Feb-15 16:00N 27°56' W 082°26'0 0.0
2018-Feb-15 15:31N 27°56' W 082°26'2 3.6
2018-Feb-15 15:01N 27°54' W 082°26'3 5.9
2018-Feb-15 14:30N 27°57' W 082°27'0 0.0
2018-Feb-15 14:00N 27°57' W 082°27'0 0.5
2018-Feb-15 13:30N 27°57' W 082°27'0 0.3
2018-Feb-15 13:00N 27°57' W 082°27'0 0.0
2018-Feb-15 12:31N 27°57' W 082°27'0 0.0
2018-Feb-15 12:00N 27°57' W 082°27'0 0.4
2018-Feb-15 11:30N 27°56' W 082°27'0 0.6
2018-Feb-15 11:00N 27°57' W 082°27'0 0.7
2018-Feb-15 10:30N 27°57' W 082°27'0 0.1
2018-Feb-15 10:00N 27°57' W 082°27'0 0.1
2018-Feb-15 09:31N 27°57' W 082°27'0 0.3
2018-Feb-15 09:01N 27°57' W 082°27'0 0.0
2018-Feb-15 08:30N 27°57' W 082°27'0 0.0
2018-Feb-15 08:01N 27°57' W 082°27'0 0.0
2018-Feb-15 07:30N 27°57' W 082°27'0 0.0
2018-Feb-15 07:01N 27°57' W 082°27'0 0.0
2018-Feb-15 06:31N 27°57' W 082°27'0 0.0
2018-Feb-15 06:00N 27°57' W 082°27'0 0.0
2018-Feb-15 05:31N 27°57' W 082°27'0 0.0
2018-Feb-15 05:00N 27°57' W 082°27'0 0.0
2018-Feb-15 04:31N 27°57' W 082°27'0 0.0
2018-Feb-15 04:01N 27°57' W 082°27'0 0.0
2018-Feb-15 03:31N 27°57' W 082°27'0 0.0
2018-Feb-15 03:01N 27°57' W 082°27'0 0.0
2018-Feb-15 02:31N 27°57' W 082°27'0 0.0
2018-Feb-15 01:59N 27°57' W 082°27'1 1.0
2018-Feb-15 01:30N 27°56' W 082°27'1 1.3
2018-Feb-15 01:01N 27°57' W 082°27'1 1.3
2018-Feb-15 00:31N 27°56' W 082°27'1 2.6
2018-Feb-15 00:01N 27°55' W 082°27'0 0.8
2018-Feb-14 23:31N 27°55' W 082°27'2 4.1
2018-Feb-14 23:01N 27°53' W 082°26'2 4.0
2018-Feb-14 22:31N 27°51' W 082°27'4 8.7
2018-Feb-14 22:01N 27°48' W 082°30'510.5
2018-Feb-14 21:30N 27°43' W 082°33'1 0.2
2018-Feb-14 14:05N 27°42' W 082°33'111.5
2018-Feb-14 14:00N 27°42' W 082°33'511.0
2018-Feb-14 13:31N 27°47' W 082°30'510.1
2018-Feb-14 13:01N 27°51' W 082°27'5 9.3
2018-Feb-14 12:31N 27°56' W 082°26'0 0.0
2018-Feb-14 12:01N 27°56' W 082°26'0 0.0
2018-Feb-14 11:31N 27°56' W 082°26'0 0.0
2018-Feb-14 11:01N 27°56' W 082°26'0 0.0
2018-Feb-14 10:31N 27°56' W 082°26'0 0.0
2018-Feb-14 10:00N 27°56' W 082°26'0 0.0
2018-Feb-14 09:31N 27°56' W 082°26'0 0.0
2018-Feb-14 09:01N 27°56' W 082°26'0 0.0
2018-Feb-14 08:31N 27°56' W 082°26'0 0.0
2018-Feb-14 08:01N 27°56' W 082°26'0 0.0
2018-Feb-14 07:31N 27°56' W 082°26'0 0.0
2018-Feb-14 07:01N 27°56' W 082°26'0 0.0
2018-Feb-14 06:30N 27°56' W 082°26'0 0.0
2018-Feb-14 06:00N 27°56' W 082°26'1 1.9
2018-Feb-14 05:31N 27°55' W 082°27'0 0.5
2018-Feb-14 05:00N 27°55' W 082°27'2 4.0
2018-Feb-14 04:31N 27°53' W 082°27'2 3.2
2018-Feb-14 04:01N 27°54' W 082°26'0 0.0
2018-Feb-14 03:31N 27°54' W 082°26'0 0.0
2018-Feb-14 03:01N 27°54' W 082°26'0 0.0
2018-Feb-14 02:31N 27°54' W 082°26'0 0.4
2018-Feb-14 02:00N 27°54' W 082°25'0 0.5
2018-Feb-14 01:31N 27°54' W 082°26'1 2.1
2018-Feb-14 01:01N 27°53' W 082°26'1 1.0
2018-Feb-14 00:30N 27°54' W 082°26'1 1.3
2018-Feb-14 00:01N 27°54' W 082°26'0 0.0
2018-Feb-13 23:31N 27°54' W 082°26'0 0.0
2018-Feb-13 23:01N 27°54' W 082°26'0 0.0
2018-Feb-13 22:30N 27°54' W 082°26'1 1.4
2018-Feb-13 22:01N 27°55' W 082°27'2 3.9
2018-Feb-13 21:30N 27°57' W 082°27'0 0.1
2018-Feb-13 21:01N 27°57' W 082°27'2 3.6
2018-Feb-13 20:31N 27°55' W 082°27'1 2.3
2018-Feb-13 20:01N 27°54' W 082°26'1 1.1
2018-Feb-13 19:31N 27°54' W 082°26'0 0.0
2018-Feb-13 19:01N 27°54' W 082°26'  
Track history (hours):
 
Tides and Currents Weather Stations Pressure Air Temp Water Temp Dewpoint Dewpoint Depression Visibility Wind Speed Wind Dir Waves Ship Positions

Patriot

Owner: Marine Towing of Tampa LLC, Tampa, FL. More information available from US FCC via Universal Licensing System and Coast Guard Vessel Documentation Center.

Last reported at 2018-Feb-23 18:31 UTC. Time now 2018-Feb-23 18:44 UTC.
Position N 27°56' W 082°26'.

Length 28 m; draft 17 m.

Type: Tug. MMSI: 367591250.

Date/timePositionNaut miles runAvg speedWind from/ knotsBaromVisibWave heightAir tempDewpointWater temp
2018-Feb-23 18:31N 27°56' W 082°26'0 0.0
2018-Feb-23 18:00N 27°56' W 082°26'0 0.0
2018-Feb-23 17:31N 27°56' W 082°26'0 0.0
2018-Feb-23 17:01N 27°56' W 082°26'0 0.0
2018-Feb-23 16:31N 27°56' W 082°26'0 0.0
2018-Feb-23 16:01N 27°56' W 082°26'0 0.0
2018-Feb-23 15:31N 27°56' W 082°26'0 0.0
2018-Feb-23 15:01N 27°56' W 082°26'0 0.0
2018-Feb-23 14:31N 27°56' W 082°26'0 0.0
2018-Feb-23 14:01N 27°56' W 082°26'0 0.0
2018-Feb-23 13:30N 27°56' W 082°26'0 0.0
2018-Feb-23 13:00N 27°56' W 082°26'0 0.0
2018-Feb-23 12:31N 27°56' W 082°26'0 0.0
2018-Feb-23 12:01N 27°56' W 082°26'0 0.0
2018-Feb-23 11:31N 27°56' W 082°26'1 1.8
2018-Feb-23 11:01N 27°55' W 082°26'1 1.8
2018-Feb-23 10:31N 27°55' W 082°27'0 0.1
2018-Feb-23 10:00N 27°55' W 082°27'0 0.5
2018-Feb-23 09:31N 27°55' W 082°27'4 7.8
2018-Feb-23 09:00N 27°51' W 082°27'3 6.4
2018-Feb-23 08:31N 27°48' W 082°25'0 0.0
2018-Feb-23 08:00N 27°48' W 082°25'0 0.0
2018-Feb-23 07:30N 27°48' W 082°25'0 0.0
2018-Feb-23 07:01N 27°48' W 082°25'0 0.0
2018-Feb-23 06:30N 27°48' W 082°25'0 0.0
2018-Feb-23 06:00N 27°48' W 082°25'0 0.0
2018-Feb-23 05:31N 27°48' W 082°25'0 0.0
2018-Feb-23 05:00N 27°48' W 082°25'5 8.9
2018-Feb-23 04:30N 27°48' W 082°30'510.0
2018-Feb-23 04:00N 27°43' W 082°32'2 0.1
2018-Feb-21 16:08N 27°42' W 082°33'110.9
2018-Feb-21 16:01N 27°43' W 082°33'510.0
2018-Feb-21 15:31N 27°47' W 082°30'5 9.3
2018-Feb-21 15:00N 27°51' W 082°27'5 9.2
2018-Feb-21 14:31N 27°55' W 082°26'1 1.3
2018-Feb-21 14:01N 27°56' W 082°26'0 0.0
2018-Feb-21 13:30N 27°56' W 082°26'0 0.0
2018-Feb-21 13:01N 27°56' W 082°26'0 0.0
2018-Feb-21 12:31N 27°56' W 082°26'0 0.0
2018-Feb-21 12:01N 27°56' W 082°26'1 2.3
2018-Feb-21 11:30N 27°55' W 082°27'2 3.4
2018-Feb-21 11:01N 27°57' W 082°27'0 0.0
2018-Feb-21 10:31N 27°57' W 082°27'0 0.1
2018-Feb-21 10:01N 27°57' W 082°27'1 2.3
2018-Feb-21 09:31N 27°56' W 082°27'1 2.3
2018-Feb-21 08:59N 27°54' W 082°26'0 0.2
2018-Feb-21 08:31N 27°55' W 082°26'1 2.6
2018-Feb-21 08:01N 27°56' W 082°26'0 0.7
2018-Feb-21 07:31N 27°56' W 082°26'0 0.0
2018-Feb-21 07:01N 27°56' W 082°26'0 0.0
2018-Feb-21 06:30N 27°56' W 082°26'0 0.0
2018-Feb-21 06:01N 27°56' W 082°26'0 0.0
2018-Feb-21 05:31N 27°56' W 082°26'0 0.0
2018-Feb-21 05:01N 27°56' W 082°26'0 0.0
2018-Feb-21 04:31N 27°56' W 082°26'0 0.0
2018-Feb-21 04:01N 27°56' W 082°26'0 0.0
2018-Feb-21 03:31N 27°56' W 082°26'0 0.0
2018-Feb-21 03:01N 27°56' W 082°26'1 2.9
2018-Feb-21 02:30N 27°55' W 082°26'1 1.1
2018-Feb-21 02:01N 27°54' W 082°25'3 6.0
2018-Feb-21 01:30N 27°57' W 082°27'0 0.3
2018-Feb-21 01:01N 27°57' W 082°27'0 0.1
2018-Feb-21 00:31N 27°57' W 082°27'1 1.1
2018-Feb-21 00:00N 27°57' W 082°27'1 1.3
2018-Feb-20 23:30N 27°56' W 082°27'0 0.5
2018-Feb-20 23:01N 27°56' W 082°27'1 2.8
2018-Feb-20 22:31N 27°55' W 082°26'1 2.6
2018-Feb-20 22:00N 27°56' W 082°26'0 0.0
2018-Feb-20 21:31N 27°56' W 082°26'0 0.0
2018-Feb-20 21:01N 27°56' W 082°26'0 0.0
2018-Feb-20 20:31N 27°56' W 082°26'0 0.0
2018-Feb-20 20:01N 27°56' W 082°26'0 0.0
2018-Feb-20 19:31N 27°56' W 082°26'2 3.2
2018-Feb-20 19:01N 27°54' W 082°26'510.7
2018-Feb-20 18:31N 27°49' W 082°27'2 4.2
2018-Feb-20 18:00N 27°48' W 082°25'2 4.0
2018-Feb-20 17:30N 27°49' W 082°27'1 2.2
2018-Feb-20 17:01N 27°48' W 082°28'4 7.4
2018-Feb-20 16:30N 27°52' W 082°27'4 8.7
2018-Feb-20 16:01N 27°56' W 082°26'0 0.2
2018-Feb-20 15:31N 27°56' W 082°26'0 0.0
2018-Feb-20 15:01N 27°56' W 082°26'2 3.8
2018-Feb-20 14:31N 27°54' W 082°25'0 0.4
2018-Feb-20 14:01N 27°54' W 082°26'0 0.6
2018-Feb-20 13:31N 27°54' W 082°26'1 1.4
2018-Feb-20 13:01N 27°55' W 082°25'0 0.9
2018-Feb-20 12:31N 27°55' W 082°26'1 1.5
2018-Feb-20 12:01N 27°56' W 082°26'0 0.0
2018-Feb-20 11:30N 27°56' W 082°26'0 0.0
2018-Feb-20 11:01N 27°56' W 082°26'0 0.0
2018-Feb-20 10:31N 27°56' W 082°26'0 0.0
2018-Feb-20 10:01N 27°56' W 082°26'0 0.0
2018-Feb-20 09:30N 27°56' W 082°26'0 0.0
2018-Feb-20 09:01N 27°56' W 082°26'0 0.0
2018-Feb-20 08:31N 27°56' W 082°26'3 6.2
2018-Feb-20 08:01N 27°53' W 082°26'610.4
2018-Feb-20 07:28N 27°48' W 082°29'510.3
2018-Feb-20 07:01N 27°44' W 082°32'3 1.5
2018-Feb-20 04:40N 27°41' W 082°34'210.9
2018-Feb-20 04:30N 27°42' W 082°33'510.8
2018-Feb-20 04:00N 27°47' W 082°31'510.1
2018-Feb-20 03:31N 27°51' W 082°27'5 9.9
2018-Feb-20 03:01N 27°56' W 082°26'0 0.8
2018-Feb-20 02:30N 27°56' W 082°26'0 0.0
2018-Feb-20 02:00N 27°56' W 082°26'0 0.0
2018-Feb-20 01:31N 27°56' W 082°26'0 0.0
2018-Feb-20 01:00N 27°56' W 082°26'0 0.0
2018-Feb-20 00:31N 27°56' W 082°26'0 0.0
2018-Feb-20 00:01N 27°56' W 082°26'0 0.0
2018-Feb-19 23:31N 27°56' W 082°26'0 0.0
2018-Feb-19 23:01N 27°56' W 082°26'0 0.0
2018-Feb-19 22:31N 27°56' W 082°26'0 0.0
2018-Feb-19 22:01N 27°56' W 082°26'0 0.0
2018-Feb-19 21:31N 27°56' W 082°26'0 0.0
2018-Feb-19 21:00N 27°56' W 082°26'0 0.0
2018-Feb-19 20:31N 27°56' W 082°26'0 0.0
2018-Feb-19 20:01N 27°56' W 082°26'1 2.8
2018-Feb-19 19:31N 27°55' W 082°27'1 2.8
2018-Feb-19 19:01N 27°56' W 082°27'1 1.4
2018-Feb-19 18:30N 27°55' W 082°27'0 0.7
2018-Feb-19 18:01N 27°55' W 082°27'1 1.1
2018-Feb-19 17:31N 27°55' W 082°26'1 3.0
2018-Feb-19 17:01N 27°56' W 082°26'0 0.0
2018-Feb-19 16:31N 27°56' W 082°26'0 0.0
2018-Feb-19 16:01N 27°56' W 082°26'0 0.0
2018-Feb-19 15:31N 27°56' W 082°26'0 0.0
2018-Feb-19 15:00N 27°56' W 082°26'0 0.0
2018-Feb-19 14:31N 27°56' W 082°26'0 0.0
2018-Feb-19 14:01N 27°56' W 082°26'0 0.0
2018-Feb-19 13:31N 27°56' W 082°26'1 2.4
2018-Feb-19 13:00N 27°55' W 082°25'0 0.0
2018-Feb-19 12:31N 27°55' W 082°25'1 2.7
2018-Feb-19 12:01N 27°54' W 082°26'1 2.0
2018-Feb-19 11:31N 27°53' W 082°26'2 4.5
2018-Feb-19 11:01N 27°55' W 082°26'1 2.1
2018-Feb-19 10:31N 27°56' W 082°26'0 0.0
2018-Feb-19 10:00N 27°56' W 082°26'0 0.0
2018-Feb-19 09:30N 27°56' W 082°26'0 0.0
2018-Feb-19 09:00N 27°56' W 082°26'0 0.0
2018-Feb-19 08:31N 27°56' W 082°26'0 0.0
2018-Feb-19 08:00N 27°56' W 082°26'0 0.0
2018-Feb-19 07:31N 27°56' W 082°26'0 0.0
2018-Feb-19 07:01N 27°56' W 082°26'0 0.0
2018-Feb-19 06:31N 27°56' W 082°26'0 0.0
2018-Feb-19 06:01N 27°56' W 082°26'0 0.0
2018-Feb-19 05:30N 27°56' W 082°26'0 0.0
2018-Feb-19 05:01N 27°56' W 082°26'0 0.6
2018-Feb-19 04:30N 27°56' W 082°26'1 1.9
2018-Feb-19 04:00N 27°56' W 082°27'1 1.4
2018-Feb-19 03:31N 27°57' W 082°27'1 1.2
2018-Feb-19 03:01N 27°56' W 082°27'2 4.1
2018-Feb-19 02:31N 27°54' W 082°26'0 1.0
2018-Feb-19 02:00N 27°54' W 082°26'1 1.5
2018-Feb-19 01:31N 27°54' W 082°26'0 0.0
2018-Feb-19 01:01N 27°54' W 082°26'1 1.0
2018-Feb-19 00:31N 27°54' W 082°26'1 1.9
2018-Feb-19 00:01N 27°55' W 082°27'0 0.1
2018-Feb-18 23:31N 27°55' W 082°27'2 3.7
2018-Feb-18 23:01N 27°53' W 082°26'0 0.6
2018-Feb-18 22:31N 27°53' W 082°26'3 5.7
2018-Feb-18 22:00N 27°56' W 082°26'0 0.7
2018-Feb-18 21:30N 27°56' W 082°26'0 0.0
2018-Feb-18 21:01N 27°56' W 082°26'0 0.0
2018-Feb-18 20:31N 27°56' W 082°26'0 0.0
2018-Feb-18 20:00N 27°56' W 082°26'0 0.0
2018-Feb-18 19:31N 27°56' W 082°26'0 0.0
2018-Feb-18 19:01N 27°56' W 082°26'0 0.0
2018-Feb-18 18:31N 27°56' W 082°26'0 0.0
2018-Feb-18 18:01N 27°56' W 082°26'0 0.0
2018-Feb-18 17:31N 27°56' W 082°26'0 0.0
2018-Feb-18 17:01N 27°56' W 082°26'0 0.0
2018-Feb-18 16:31N 27°56' W 082°26'0 0.0
2018-Feb-18 16:01N 27°56' W 082°26'0 0.0
2018-Feb-18 15:31N 27°56' W 082°26'0 0.0
2018-Feb-18 15:01N 27°56' W 082°26'0 0.0
2018-Feb-18 14:30N 27°56' W 082°26'0 0.0
2018-Feb-18 14:01N 27°56' W 082°26'0 0.3
2018-Feb-18 13:30N 27°56' W 082°26'1 1.5
2018-Feb-18 13:01N 27°56' W 082°27'0 0.9
2018-Feb-18 12:30N 27°56' W 082°27'1 1.4
2018-Feb-18 12:01N 27°56' W 082°27'2 4.8
2018-Feb-18 11:30N 27°53' W 082°26'1 2.3
2018-Feb-18 11:01N 27°54' W 082°26'0 0.7
2018-Feb-18 10:31N 27°54' W 082°26'0 0.0
2018-Feb-18 10:01N 27°54' W 082°26'0 0.0
2018-Feb-18 09:31N 27°54' W 082°26'0 0.0
2018-Feb-18 09:00N 27°54' W 082°26'0 0.0
2018-Feb-18 08:31N 27°54' W 082°26'0 0.5
2018-Feb-18 08:01N 27°55' W 082°26'1 1.0
2018-Feb-18 07:31N 27°54' W 082°26'1 2.5
2018-Feb-18 07:01N 27°53' W 082°26'3 5.5
2018-Feb-18 06:30N 27°56' W 082°26'1 1.0
2018-Feb-18 06:00N 27°56' W 082°26'0 0.0
2018-Feb-18 05:31N 27°56' W 082°26'0 0.0
2018-Feb-18 05:01N 27°56' W 082°26'0 0.0
2018-Feb-18 04:31N 27°56' W 082°26'0 0.0
2018-Feb-18 04:00N 27°56' W 082°26'0 0.0
2018-Feb-18 03:31N 27°56' W 082°26'0 0.0
2018-Feb-18 03:01N 27°56' W 082°26'0 0.0
2018-Feb-18 02:31N 27°56' W 082°26'0 0.0
2018-Feb-18 02:01N 27°56' W 082°26'0 0.0
2018-Feb-18 01:31N 27°56' W 082°26'0 0.0
2018-Feb-18 01:00N 27°56' W 082°26'0 0.0
2018-Feb-18 00:30N 27°56' W 082°26'0 0.0
2018-Feb-18 00:01N 27°56' W 082°26'0 0.0
2018-Feb-17 23:31N 27°56' W 082°26'0 0.0
2018-Feb-17 23:01N 27°56' W 082°26'0 0.0
2018-Feb-17 22:31N 27°56' W 082°26'0 0.0
2018-Feb-17 22:01N 27°56' W 082°26'0 0.0
2018-Feb-17 21:30N 27°56' W 082°26'0 0.0
2018-Feb-17 21:01N 27°56' W 082°26'0 0.0
2018-Feb-17 20:31N 27°56' W 082°26'0 0.0
2018-Feb-17 20:01N 27°56' W 082°26'0 0.0
2018-Feb-17 19:31N 27°56' W 082°26'0 0.0
2018-Feb-17 19:01N 27°56' W 082°26'2 3.6
2018-Feb-17 18:31N 27°54' W 082°26'611.0
2018-Feb-17 18:00N 27°49' W 082°27'2 3.6
2018-Feb-17 17:30N 27°48' W 082°25'0 0.4
2018-Feb-17 17:01N 27°48' W 082°25'1 2.3
2018-Feb-17 16:30N 27°49' W 082°26'4 8.7
2018-Feb-17 16:01N 27°53' W 082°26'3 6.3
2018-Feb-17 15:31N 27°56' W 082°26'0 0.0
2018-Feb-17 15:01N 27°56' W 082°26'0 0.0
2018-Feb-17 14:31N 27°56' W 082°26'0 0.0
2018-Feb-17 14:01N 27°56' W 082°26'0 0.0
2018-Feb-17 13:31N 27°56' W 082°26'0 0.0
2018-Feb-17 13:01N 27°56' W 082°26'0 0.0
2018-Feb-17 12:31N 27°56' W 082°26'0 0.0
2018-Feb-17 12:01N 27°56' W 082°26'0 0.0
2018-Feb-17 11:30N 27°56' W 082°26'0 0.0
2018-Feb-17 11:01N 27°56' W 082°26'0 0.0
2018-Feb-17 10:31N 27°56' W 082°26'0 0.0
2018-Feb-17 10:00N 27°56' W 082°26'0 0.0
2018-Feb-17 09:31N 27°56' W 082°26'0 0.0
2018-Feb-17 09:01N 27°56' W 082°26'0 0.0
2018-Feb-17 08:30N 27°56' W 082°26'0 0.0
2018-Feb-17 08:01N 27°56' W 082°26'0 0.0
2018-Feb-17 07:31N 27°56' W 082°26'0 0.0
2018-Feb-17 07:01N 27°56' W 082°26'0 0.0
2018-Feb-17 06:30N 27°56' W 082°26'0 0.0
2018-Feb-17 06:01N 27°56' W 082°26'0 0.0
2018-Feb-17 05:31N 27°56' W 082°26'0 0.0
2018-Feb-17 05:01N 27°56' W 082°26'0 0.0
2018-Feb-17 04:30N 27°56' W 082°26'0 0.0
2018-Feb-17 04:01N 27°56' W 082°26'0 0.0
2018-Feb-17 03:31N 27°56' W 082°26'0 0.0
2018-Feb-17 03:01N 27°56' W 082°26'0 0.0
2018-Feb-17 02:31N 27°56' W 082°26'0 0.0
2018-Feb-17 02:01N 27°56' W 082°26'0 0.0
2018-Feb-17 01:31N 27°56' W 082°26'0 0.0
2018-Feb-17 01:01N 27°56' W 082°26'0 0.0
2018-Feb-17 00:30N 27°56' W 082°26'0 0.0
2018-Feb-17 00:01N 27°56' W 082°26'0 0.0
2018-Feb-16 23:31N 27°56' W 082°26'0 0.0
2018-Feb-16 23:01N 27°56' W 082°26'0 0.0
2018-Feb-16 22:31N 27°56' W 082°26'1 1.5
2018-Feb-16 22:01N 27°56' W 082°27'1 2.2
2018-Feb-16 21:31N 27°57' W 082°27'0 0.4
2018-Feb-16 21:01N 27°57' W 082°27'2 3.7
2018-Feb-16 20:30N 27°55' W 082°26'1 1.1
2018-Feb-16 20:01N 27°54' W 082°26'1 1.8
2018-Feb-16 19:30N 27°55' W 082°26'1 2.3
2018-Feb-16 19:01N 27°56' W 082°26'0 0.0
2018-Feb-16 18:31N 27°56' W 082°26'0 0.0
2018-Feb-16 18:01N 27°56' W 082°26'0 0.0
2018-Feb-16 17:31N 27°56' W 082°26'0 0.0
2018-Feb-16 17:01N 27°56' W 082°26'0 0.0
2018-Feb-16 16:31N 27°56' W 082°26'0 0.0
2018-Feb-16 16:01N 27°56' W 082°26'0 0.0
2018-Feb-16 15:31N 27°56' W 082°26'0 0.0
2018-Feb-16 15:01N 27°56' W 082°26'0 0.0
2018-Feb-16 14:31N 27°56' W 082°26'0 0.0
2018-Feb-16 14:00N 27°56' W 082°26'1 1.9
2018-Feb-16 13:30N 27°55' W 082°25'0 0.0
2018-Feb-16 13:01N 27°55' W 082°25'1 2.6
2018-Feb-16 12:30N 27°54' W 082°26'1 2.8
2018-Feb-16 12:01N 27°53' W 082°26'3 6.1
2018-Feb-16 11:30N 27°50' W 082°27'510.4
2018-Feb-16 11:00N 27°46' W 082°31'9 2.5
2018-Feb-16 07:34N 27°38' W 082°34'3 4.5
2018-Feb-16 06:52N 27°38' W 082°38'2 5.6
2018-Feb-16 06:30N 27°39' W 082°36'2 1.6
2018-Feb-16 05:19N 27°38' W 082°34'3 7.2
2018-Feb-16 04:55N 27°41' W 082°35'410.2
2018-Feb-16 04:30N 27°44' W 082°32'5 9.7
2018-Feb-16 04:00N 27°48' W 082°28'510.2
2018-Feb-16 03:30N 27°53' W 082°26'2 4.7
2018-Feb-16 03:01N 27°55' W 082°25'1 1.6
2018-Feb-16 02:31N 27°54' W 082°26'0 0.8
2018-Feb-16 02:01N 27°54' W 082°26'0 0.0
2018-Feb-16 01:31N 27°54' W 082°26'0 0.0
2018-Feb-16 01:01N 27°54' W 082°26'0 0.0
2018-Feb-16 00:30N 27°54' W 082°26'1 1.3
2018-Feb-16 00:01N 27°55' W 082°27'0 0.1
2018-Feb-15 23:31N 27°55' W 082°27'0 0.0
2018-Feb-15 23:00N 27°55' W 082°27'0 0.4
2018-Feb-15 22:31N 27°55' W 082°27'2 3.2
2018-Feb-15 22:01N 27°57' W 082°27'0 0.7
2018-Feb-15 21:31N 27°57' W 082°27'2 4.8
2018-Feb-15 21:01N 27°55' W 082°27'1 2.7
2018-Feb-15 20:31N 27°56' W 082°26'0 0.0
2018-Feb-15 20:01N 27°56' W 082°26'0 0.0
2018-Feb-15 19:31N 27°56' W 082°26'0 0.0
2018-Feb-15 19:01N 27°56' W 082°26'0 0.0
2018-Feb-15 18:31N 27°56' W 082°26'0 0.0
2018-Feb-15 18:01N 27°56' W 082°26'0 0.0
2018-Feb-15 17:31N 27°56' W 082°26'0 0.0
2018-Feb-15 17:00N 27°56' W 082°26'0 0.0
2018-Feb-15 16:31N 27°56' W 082°26'0 0.0
2018-Feb-15 16:00N 27°56' W 082°26'0 0.0
2018-Feb-15 15:31N 27°56' W 082°26'2 3.6
2018-Feb-15 15:01N 27°54' W 082°26'3 5.9
2018-Feb-15 14:30N 27°57' W 082°27'0 0.0
2018-Feb-15 14:00N 27°57' W 082°27'0 0.5
2018-Feb-15 13:30N 27°57' W 082°27'0 0.3
2018-Feb-15 13:00N 27°57' W 082°27'0 0.0
2018-Feb-15 12:31N 27°57' W 082°27'0 0.0
2018-Feb-15 12:00N 27°57' W 082°27'0 0.4
2018-Feb-15 11:30N 27°56' W 082°27'0 0.6
2018-Feb-15 11:00N 27°57' W 082°27'0 0.7
2018-Feb-15 10:30N 27°57' W 082°27'0 0.1
2018-Feb-15 10:00N 27°57' W 082°27'0 0.1
2018-Feb-15 09:31N 27°57' W 082°27'0 0.3
2018-Feb-15 09:01N 27°57' W 082°27'0 0.0
2018-Feb-15 08:30N 27°57' W 082°27'0 0.0
2018-Feb-15 08:01N 27°57' W 082°27'0 0.0
2018-Feb-15 07:30N 27°57' W 082°27'0 0.0
2018-Feb-15 07:01N 27°57' W 082°27'0 0.0
2018-Feb-15 06:31N 27°57' W 082°27'0 0.0
2018-Feb-15 06:00N 27°57' W 082°27'0 0.0
2018-Feb-15 05:31N 27°57' W 082°27'0 0.0
2018-Feb-15 05:00N 27°57' W 082°27'0 0.0
2018-Feb-15 04:31N 27°57' W 082°27'0 0.0
2018-Feb-15 04:01N 27°57' W 082°27'0 0.0
2018-Feb-15 03:31N 27°57' W 082°27'0 0.0
2018-Feb-15 03:01N 27°57' W 082°27'0 0.0
2018-Feb-15 02:31N 27°57' W 082°27'0 0.0
2018-Feb-15 01:59N 27°57' W 082°27'1 1.0
2018-Feb-15 01:30N 27°56' W 082°27'1 1.3
2018-Feb-15 01:01N 27°57' W 082°27'1 1.3
2018-Feb-15 00:31N 27°56' W 082°27'1 2.6
2018-Feb-15 00:01N 27°55' W 082°27'0 0.8
2018-Feb-14 23:31N 27°55' W 082°27'2 4.1
2018-Feb-14 23:01N 27°53' W 082°26'2 4.0
2018-Feb-14 22:31N 27°51' W 082°27'4 8.7
2018-Feb-14 22:01N 27°48' W 082°30'510.5
2018-Feb-14 21:30N 27°43' W 082°33'1 0.2
2018-Feb-14 14:05N 27°42' W 082°33'111.5
2018-Feb-14 14:00N 27°42' W 082°33'511.0
2018-Feb-14 13:31N 27°47' W 082°30'510.1
2018-Feb-14 13:01N 27°51' W 082°27'5 9.3
2018-Feb-14 12:31N 27°56' W 082°26'0 0.0
2018-Feb-14 12:01N 27°56' W 082°26'0 0.0
2018-Feb-14 11:31N 27°56' W 082°26'0 0.0
2018-Feb-14 11:01N 27°56' W 082°26'0 0.0
2018-Feb-14 10:31N 27°56' W 082°26'0 0.0
2018-Feb-14 10:00N 27°56' W 082°26'0 0.0
2018-Feb-14 09:31N 27°56' W 082°26'0 0.0
2018-Feb-14 09:01N 27°56' W 082°26'0 0.0
2018-Feb-14 08:31N 27°56' W 082°26'0 0.0
2018-Feb-14 08:01N 27°56' W 082°26'0 0.0
2018-Feb-14 07:31N 27°56' W 082°26'0 0.0
2018-Feb-14 07:01N 27°56' W 082°26'0 0.0
2018-Feb-14 06:30N 27°56' W 082°26'0 0.0
2018-Feb-14 06:00N 27°56' W 082°26'1 1.9
2018-Feb-14 05:31N 27°55' W 082°27'0 0.5
2018-Feb-14 05:00N 27°55' W 082°27'2 4.0
2018-Feb-14 04:31N 27°53' W 082°27'2 3.2
2018-Feb-14 04:01N 27°54' W 082°26'0 0.0
2018-Feb-14 03:31N 27°54' W 082°26'0 0.0
2018-Feb-14 03:01N 27°54' W 082°26'0 0.0
2018-Feb-14 02:31N 27°54' W 082°26'0 0.4
2018-Feb-14 02:00N 27°54' W 082°25'0 0.5
2018-Feb-14 01:31N 27°54' W 082°26'1 2.1
2018-Feb-14 01:01N 27°53' W 082°26'1 1.0
2018-Feb-14 00:30N 27°54' W 082°26'1 1.3
2018-Feb-14 00:01N 27°54' W 082°26'0 0.0
2018-Feb-13 23:31N 27°54' W 082°26'0 0.0
2018-Feb-13 23:01N 27°54' W 082°26'0 0.0
2018-Feb-13 22:30N 27°54' W 082°26'1 1.4
2018-Feb-13 22:01N 27°55' W 082°27'2 3.9
2018-Feb-13 21:30N 27°57' W 082°27'0 0.1
2018-Feb-13 21:01N 27°57' W 082°27'2 3.6
2018-Feb-13 20:31N 27°55' W 082°27'1 2.3
2018-Feb-13 20:01N 27°54' W 082°26'1 1.1
2018-Feb-13 19:31N 27°54' W 082°26'0 0.0
2018-Feb-13 19:01N 27°54' W 082°26'  

Dump ship's entire track history